Mid Delta Regional Airport
KGLH : now visible

Airfield :











YOU CAN JOIN US ON...

 
LOGIN :

Register | Disclaimer

   EN    FR    IT 

 









Legend :    VFR   Marginal VFR   IFR   Intensive IFR   Very Intensive IFR
Visi :
Ceiling :
>= 8 km
>= 3000ft
5 to 8 km
1000 to 3000 ft
1500m to 5 km
500 to 1000 ft
800 to 1500m
200 to 500 ft
< 800m
< 200 ft
Symbols :   Thunderstorms  Fog  Heavy snow  Heavy precipitations  Wind > 20 kt






- Airport Elevation : 131 ft
- IATA code : GLH


KGLH - Mid Delta Regional

CURRENT METAR :
  • 181153Z 17007KT 10SM CLR 22/18 A2995 RMK AO2 SLP147 T02220183 10233 20217 51008

EXPIRED METARs :
  • 181053Z AUTO 16007KT 10SM CLR 22/18 A2994 RMK AO2 SLP143 T02220178
  • 180953Z AUTO 15007KT 10SM CLR 23/17 A2994 RMK AO2 SLP144 T02280172

TAF KGLH
Valid from the 18 at 12:00 until the 19 at 12:00 UTC


181120Z 1812/1912 13005KT P6SM SCT250
FM181600 21015G22KT P6SM FEW250
FM190200 20008KT P6SM FEW250
KZME FIR / North America



MET'MAP, your aeronautical weather chart ! - Copyright ORBIFLY December 2007 - Disclaimer

ORBIFLY MET'MAP TEAM :

Programming & Development : Alexandra Zaïnal
Original concept : Baudouin d'Aumeries
Technical & hardware support : Manuel Goepfert
Assistance : Marc-Olivier Méhu

Contact : metmap@orbifly.com




SOURCES & CREDITS :

   NOAA       Earth
Advisory